createdAt,value
2022-11-28T00:00:47.855Z,95463.2
2022-11-28T00:01:50.688Z,95460.5
2022-11-28T00:02:53.711Z,95460.9
2022-11-28T00:03:56.693Z,95463.6
2022-11-28T00:05:00.253Z,95458.9
2022-11-28T00:06:03.047Z,95458
2022-11-28T00:07:05.715Z,95459.2
2022-11-28T00:08:07.889Z,95454.4
2022-11-28T00:09:10.250Z,95454.8
2022-11-28T00:10:12.479Z,95457.3
2022-11-28T00:11:14.127Z,95454.8
2022-11-28T00:12:16.627Z,95450.2
2022-11-28T00:13:18.841Z,95455.4
2022-11-28T00:14:21.085Z,95454.3
2022-11-28T00:15:23.032Z,95452.5
2022-11-28T00:16:25.595Z,95453.9
2022-11-28T00:17:27.959Z,95449.7
2022-11-28T00:18:30.412Z,95454.4
2022-11-28T00:19:32.612Z,95449.7
2022-11-28T00:20:35.223Z,95449.6
2022-11-28T00:21:37.446Z,95450.6
2022-11-28T00:22:39.758Z,95453.9
2022-11-28T00:23:42.000Z,95455.7
2022-11-28T00:24:45.450Z,95454.6
2022-11-28T00:25:47.383Z,95465.9
2022-11-28T00:26:49.605Z,95463.4
2022-11-28T00:27:52.087Z,95470.6
2022-11-28T00:28:54.279Z,95464.5
2022-11-28T00:29:56.764Z,95467.4
2022-11-28T00:30:58.967Z,95465
2022-11-28T00:32:01.390Z,95456.1
2022-11-28T00:33:04.036Z,95451.3
2022-11-28T00:34:12.597Z,95446.6
2022-11-28T00:35:13.196Z,95444.9
2022-11-28T00:36:15.852Z,95444.5
2022-11-28T00:37:18.320Z,95447.6
2022-11-28T00:38:20.918Z,95441
2022-11-28T00:39:23.387Z,95444
2022-11-28T00:40:25.709Z,95446.7
2022-11-28T00:41:28.173Z,95449
2022-11-28T00:42:30.117Z,95445.7
2022-11-28T00:43:32.439Z,95438.8
2022-11-28T00:44:34.937Z,95434.2
2022-11-28T00:45:37.147Z,95429
2022-11-28T00:46:39.783Z,95428.7
2022-11-28T00:47:42.261Z,95422.9
2022-11-28T00:48:44.456Z,95419.6
2022-11-28T00:49:46.770Z,95419.7
2022-11-28T00:50:49.107Z,95415.5
2022-11-28T00:51:51.692Z,95417.2
2022-11-28T00:52:53.608Z,95412.8
2022-11-28T00:53:56.215Z,95411
2022-11-28T00:54:58.722Z,95406.8
2022-11-28T00:56:01.055Z,95410.2
2022-11-28T00:57:03.007Z,95410.3
2022-11-28T00:58:05.488Z,95408
2022-11-28T00:59:07.701Z,95408.5
2022-11-28T01:00:09.609Z,95402.9
2022-11-28T01:01:11.883Z,95403
2022-11-28T01:02:14.660Z,95401.1
2022-11-28T01:03:17.276Z,95400.3
2022-11-28T01:04:19.742Z,95397.5
2022-11-28T01:05:22.332Z,95401.3
2022-11-28T01:06:24.932Z,95402.8
2022-11-28T01:07:27.927Z,95402.9
2022-11-28T01:08:30.629Z,95408.9
2022-11-28T01:09:32.965Z,95407.1
2022-11-28T01:10:35.178Z,95401.6
2022-11-28T01:11:37.780Z,95404.8
2022-11-28T01:12:39.765Z,95403.2
2022-11-28T01:13:41.975Z,95412.2
2022-11-28T01:14:45.059Z,95410.3
2022-11-28T01:15:46.708Z,95416.4
2022-11-28T01:16:49.612Z,95415.6
2022-11-28T01:17:52.221Z,95412.7
2022-11-28T01:18:54.698Z,95413.3
2022-11-28T01:19:56.604Z,95414.1
2022-11-28T01:20:58.916Z,95414.6
2022-11-28T01:22:00.986Z,95410.5
2022-11-28T01:23:03.574Z,95410.4
2022-11-28T01:24:05.485Z,95409.4
2022-11-28T01:25:08.079Z,95409
2022-11-28T01:26:10.255Z,95412.2
2022-11-28T01:27:12.331Z,95409.5
2022-11-28T01:28:14.822Z,95406.1
2022-11-28T01:29:17.027Z,95400.3
2022-11-28T01:30:19.240Z,95396.7
2022-11-28T01:31:22.076Z,95394.8
2022-11-28T01:32:24.679Z,95392.5
2022-11-28T01:33:26.893Z,95390.8
2022-11-28T01:34:29.384Z,95388.7
2022-11-28T01:35:31.587Z,95394.8
2022-11-28T01:36:34.174Z,95391.6
2022-11-28T01:37:36.768Z,95394.3
2022-11-28T01:38:39.345Z,95395.8
2022-11-28T01:39:40.977Z,95389.1
2022-11-28T01:40:43.561Z,95388.3
2022-11-28T01:41:46.056Z,95379.9
2022-11-28T01:42:48.690Z,95379.3
2022-11-28T01:43:50.887Z,95374.8
2022-11-28T01:44:53.062Z,95369.1
2022-11-28T01:45:55.267Z,95363.9
2022-11-28T01:46:57.776Z,95359.3
2022-11-28T01:48:00.469Z,95364.8
2022-11-28T01:49:02.393Z,95367.7
2022-11-28T01:50:04.883Z,95372.5
2022-11-28T01:51:07.194Z,95371.5
2022-11-28T01:52:09.861Z,95383.1
2022-11-28T01:53:12.207Z,95390.7
2022-11-28T01:54:14.805Z,95405.8
2022-11-28T01:55:16.716Z,95418.5
2022-11-28T01:56:19.018Z,95419.8
2022-11-28T01:57:21.515Z,95419.6
2022-11-28T01:58:24.113Z,95413.6
2022-11-28T01:59:26.313Z,95410.8
2022-11-28T02:00:28.792Z,95405.1
2022-11-28T02:01:31.555Z,95410.8
2022-11-28T02:02:34.487Z,95411.7
2022-11-28T02:03:36.850Z,95406.4
2022-11-28T02:04:38.765Z,95402.5
2022-11-28T02:05:41.308Z,95399.7
2022-11-28T02:06:43.544Z,95394.7
2022-11-28T02:07:46.462Z,95398.4
2022-11-28T02:08:49.194Z,95397.5
2022-11-28T02:09:51.793Z,95402.9
2022-11-28T02:10:53.981Z,95403.8
2022-11-28T02:11:56.584Z,95397.5
2022-11-28T02:12:58.833Z,95401.1
2022-11-28T02:14:01.179Z,95410.9
2022-11-28T02:15:03.663Z,95407.3
2022-11-28T02:16:06.331Z,95404.7
2022-11-28T02:17:08.367Z,95392.3
2022-11-28T02:18:10.838Z,95386.3
2022-11-28T02:19:13.026Z,95386.1
2022-11-28T02:20:15.555Z,95387.6
2022-11-28T02:21:17.471Z,95380.7
2022-11-28T02:22:19.989Z,95376.6
2022-11-28T02:23:22.024Z,95381.8
2022-11-28T02:24:24.359Z,95378.7
2022-11-28T02:25:26.952Z,95382.2
2022-11-28T02:26:29.431Z,95380.4
2022-11-28T02:27:32.012Z,95378.2
2022-11-28T02:28:34.498Z,95376.7
2022-11-28T02:29:36.885Z,95376.3
2022-11-28T02:30:39.101Z,95379.8
2022-11-28T02:31:41.908Z,95378.3
2022-11-28T02:32:43.988Z,95374.8
2022-11-28T02:33:46.207Z,95372.3
2022-11-28T02:34:50.254Z,95370.2
2022-11-28T02:35:52.889Z,95369.7
2022-11-28T02:36:55.097Z,95366.8
2022-11-28T02:37:57.310Z,95364.9
2022-11-28T02:38:59.922Z,95364.1
2022-11-28T02:40:02.253Z,95360.8
2022-11-28T02:41:04.862Z,95358.1
2022-11-28T02:42:07.338Z,95357.6
2022-11-28T02:43:09.933Z,95356.1
2022-11-28T02:44:12.405Z,95355.2
2022-11-28T02:45:14.756Z,95361.5
2022-11-28T02:46:17.636Z,95351.4
2022-11-28T02:47:19.662Z,95349.1
2022-11-28T02:48:22.133Z,95348.9
2022-11-28T02:49:24.624Z,95347.2
2022-11-28T02:50:26.819Z,95346.2
2022-11-28T02:51:29.020Z,95345.6
2022-11-28T02:52:31.493Z,95344.4
2022-11-28T02:53:33.981Z,95336.3
2022-11-28T02:54:36.317Z,95334
2022-11-28T02:55:38.908Z,95336.3
2022-11-28T02:56:41.492Z,95330.6
2022-11-28T02:57:43.704Z,95339.4
2022-11-28T02:58:46.298Z,95346.2
2022-11-28T02:59:48.211Z,95337.9
2022-11-28T03:00:51.096Z,95336.7
2022-11-28T03:01:54.009Z,95335.1
2022-11-28T03:02:56.591Z,95336.7
2022-11-28T03:03:58.777Z,95338.9
2022-11-28T03:05:00.999Z,95343.6
2022-11-28T03:06:03.488Z,95343.7
2022-11-28T03:07:05.955Z,95347.7
2022-11-28T03:08:08.443Z,95355.1
2022-11-28T03:09:10.942Z,95358.5
2022-11-28T03:10:13.531Z,95347
2022-11-28T03:11:16.117Z,95335.9
2022-11-28T03:12:18.750Z,95327.2
2022-11-28T03:13:20.953Z,95341.6
2022-11-28T03:14:23.278Z,95338.4
2022-11-28T03:15:25.460Z,95332.5
2022-11-28T03:16:28.133Z,95332.2
2022-11-28T03:17:30.157Z,95333.9
2022-11-28T03:18:32.628Z,95335.3
2022-11-28T03:19:34.823Z,95329.4
2022-11-28T03:20:36.768Z,95322
2022-11-28T03:21:39.267Z,95323
2022-11-28T03:22:41.184Z,95321.7
2022-11-28T03:23:43.115Z,95318.9
2022-11-28T03:24:46.019Z,95318.1
2022-11-28T03:25:48.620Z,95315.3
2022-11-28T03:26:51.238Z,95312.4
2022-11-28T03:27:53.834Z,95306.6
2022-11-28T03:28:56.318Z,95297.8
2022-11-28T03:29:58.632Z,95300.9
2022-11-28T03:31:01.308Z,95298.3
2022-11-28T03:32:03.800Z,95300
2022-11-28T03:33:06.010Z,95298.9
2022-11-28T03:34:08.227Z,95300.4
2022-11-28T03:35:10.728Z,95298.1
2022-11-28T03:36:12.934Z,95298.1
2022-11-28T03:37:15.408Z,95298.8
2022-11-28T03:38:17.629Z,95301.6
2022-11-28T03:39:20.106Z,95298.1
2022-11-28T03:40:22.599Z,95292.9
2022-11-28T03:41:25.192Z,95285.6
2022-11-28T03:42:27.522Z,95284.8
2022-11-28T03:43:30.109Z,95284.3
2022-11-28T03:44:32.322Z,95293.3
2022-11-28T03:45:34.919Z,95297.1
2022-11-28T03:46:37.746Z,95294.2
2022-11-28T03:47:40.163Z,95294.5
2022-11-28T03:48:42.646Z,95288.3
2022-11-28T03:49:45.126Z,95288.4
2022-11-28T03:50:47.343Z,95295.6
2022-11-28T03:51:49.542Z,95290.9
2022-11-28T03:52:52.029Z,95287.5
2022-11-28T03:53:54.218Z,95286.9
2022-11-28T03:54:56.703Z,95292.6
2022-11-28T03:55:59.440Z,95294.8
2022-11-28T03:57:02.187Z,95290.3
2022-11-28T03:58:04.778Z,95281.1
2022-11-28T03:59:07.379Z,95267
2022-11-28T04:00:09.856Z,95265.9
2022-11-28T04:01:12.812Z,95268
2022-11-28T04:02:15.428Z,95276.1
2022-11-28T04:03:18.472Z,95281.5
2022-11-28T04:04:21.070Z,95279.4
2022-11-28T04:05:23.564Z,95271.7
2022-11-28T04:06:25.507Z,95272.4
2022-11-28T04:07:28.401Z,95265.8
2022-11-28T04:08:31.161Z,95269
2022-11-28T04:09:33.690Z,95269.5
2022-11-28T04:10:36.189Z,95270.8
2022-11-28T04:11:38.747Z,95268.3
2022-11-28T04:12:41.381Z,95274.5
2022-11-28T04:13:43.961Z,95273.1
2022-11-28T04:14:46.745Z,95268.4
2022-11-28T04:15:49.208Z,95271.1
2022-11-28T04:17:56.669Z,95267.9
2022-11-28T04:18:59.292Z,95266
2022-11-28T04:20:01.764Z,95266.3
2022-11-28T04:21:03.974Z,95260.7
2022-11-28T04:22:06.453Z,95255.2
2022-11-28T04:23:08.664Z,95251
2022-11-28T04:24:11.127Z,95253
2022-11-28T04:25:13.618Z,95253.5
2022-11-28T04:26:16.101Z,95260.8
2022-11-28T04:27:18.032Z,95256.8
2022-11-28T04:28:20.343Z,95250.9
2022-11-28T04:29:22.671Z,95244.9
2022-11-28T04:30:25.245Z,95244.6
2022-11-28T04:31:28.131Z,95255.6
2022-11-28T04:32:30.888Z,95258.5
2022-11-28T04:33:33.100Z,95260.2
2022-11-28T04:34:35.388Z,95262.8
2022-11-28T04:35:37.621Z,95259
2022-11-28T04:36:39.828Z,95254
2022-11-28T04:37:42.304Z,95251.8
2022-11-28T04:38:44.887Z,95254.2
2022-11-28T04:39:47.450Z,95253.6
2022-11-28T04:40:49.667Z,95258.7
2022-11-28T04:41:51.905Z,95257.8
2022-11-28T04:42:54.827Z,95254.7
2022-11-28T04:43:57.437Z,95247
2022-11-28T04:45:00.054Z,95250.8
2022-11-28T04:46:02.688Z,95247
2022-11-28T04:47:05.254Z,95247.4
2022-11-28T04:48:07.896Z,95246.8
2022-11-28T04:49:09.866Z,95245
2022-11-28T04:50:12.471Z,95251.8
2022-11-28T04:51:14.671Z,95249.8
2022-11-28T04:52:17.185Z,95249.3
2022-11-28T04:53:19.103Z,95246.5
2022-11-28T04:54:21.586Z,95248.4
2022-11-28T04:55:23.781Z,95246.6
2022-11-28T04:56:26.269Z,95232.9
2022-11-28T04:57:28.739Z,95233.2
2022-11-28T04:58:30.924Z,95236
2022-11-28T04:59:33.526Z,95242.3
2022-11-28T05:00:35.785Z,95246.7
2022-11-28T05:01:38.348Z,95255.8
2022-11-28T05:02:40.789Z,95268.4
2022-11-28T05:03:44.499Z,95275.6
2022-11-28T05:04:47.034Z,95283
2022-11-28T05:05:49.646Z,95291.3
2022-11-28T05:06:51.833Z,95292.7
2022-11-28T05:07:54.710Z,95292.2
2022-11-28T05:08:57.274Z,95301.6
2022-11-28T05:09:59.754Z,95297.2
2022-11-28T05:11:01.965Z,95293.5
2022-11-28T05:12:04.471Z,95303
2022-11-28T05:13:06.958Z,95313.6
2022-11-28T05:14:09.445Z,95313.8
2022-11-28T05:15:12.043Z,95298.8
2022-11-28T05:16:14.598Z,95295.9
2022-11-28T05:17:16.726Z,95293.7
2022-11-28T05:18:19.208Z,95309
2022-11-28T05:19:21.809Z,95332.6
2022-11-28T05:20:24.305Z,95322.8
2022-11-28T05:21:26.895Z,95312.3
2022-11-28T05:22:29.097Z,95310
2022-11-28T05:23:31.293Z,95306.5
2022-11-28T05:24:34.058Z,95308.3
2022-11-28T05:25:36.526Z,95314
2022-11-28T05:26:39.004Z,95316
2022-11-28T05:27:41.464Z,95319.3
2022-11-28T05:28:43.954Z,95315.5
2022-11-28T05:30:51.245Z,95311.7
2022-11-28T05:31:54.221Z,95311.3
2022-11-28T05:32:57.030Z,95312.7
2022-11-28T05:33:59.552Z,95320.2
2022-11-28T05:35:01.864Z,95305.6
2022-11-28T05:37:09.919Z,95305.2
2022-11-28T05:39:17.108Z,95322
2022-11-28T05:40:19.314Z,95305.2
2022-11-28T05:41:21.508Z,95306.4
2022-11-28T05:42:23.513Z,95305.7
2022-11-28T05:43:25.189Z,95312.8
2022-11-28T05:44:28.753Z,95315.9
2022-11-28T05:45:31.497Z,95300.1
2022-11-28T05:46:34.196Z,95287.6
2022-11-28T05:47:36.236Z,95285.1
2022-11-28T05:48:38.549Z,95292.9
2022-11-28T05:49:41.438Z,95295.3
2022-11-28T05:50:44.746Z,95280.9
2022-11-28T05:51:46.940Z,95260.5
2022-11-28T05:52:49.545Z,95256.4
2022-11-28T05:53:51.721Z,95276.4
2022-11-28T05:54:54.221Z,95285.6
2022-11-28T05:55:56.127Z,95284.3
2022-11-28T05:56:58.076Z,95277.8
2022-11-28T05:58:00.578Z,95266.3
2022-11-28T05:59:02.777Z,95245.6
2022-11-28T06:00:04.979Z,95244.9
2022-11-28T06:01:07.472Z,95250.9
2022-11-28T06:02:10.198Z,95270.8
2022-11-28T06:03:12.904Z,95270.4
2022-11-28T06:04:15.718Z,95265
2022-11-28T06:06:23.329Z,95240.4
2022-11-28T06:07:25.908Z,95245
2022-11-28T06:08:28.626Z,95242.5
2022-11-28T06:09:31.112Z,95241.3
2022-11-28T06:10:33.309Z,95249.7
2022-11-28T06:11:35.792Z,95263.4
2022-11-28T06:12:38.003Z,95247.8
2022-11-28T06:13:40.488Z,95249.3
2022-11-28T06:14:42.954Z,95257.7
2022-11-28T06:15:45.162Z,95251.4
2022-11-28T06:16:47.663Z,95245.8
2022-11-28T06:17:50.380Z,95252.2
2022-11-28T06:18:53.415Z,95247.3
2022-11-28T06:19:56.260Z,95242.8
2022-11-28T06:20:58.738Z,95248.3
2022-11-28T06:22:01.341Z,95250.5
2022-11-28T06:23:03.849Z,95263
2022-11-28T06:24:06.456Z,95258.4
2022-11-28T06:25:08.960Z,95255.2
2022-11-28T06:26:11.456Z,95239.1
2022-11-28T06:27:13.417Z,95238.1
2022-11-28T06:28:15.342Z,95244.7
2022-11-28T06:29:17.556Z,95244.1
2022-11-28T06:30:19.783Z,95246.3
2022-11-28T06:31:22.053Z,95239.1
2022-11-28T06:32:24.397Z,95237.7
2022-11-28T06:33:26.746Z,95240.8
2022-11-28T06:34:29.086Z,95240
2022-11-28T06:35:31.397Z,95239.2
2022-11-28T06:36:33.640Z,95235.1
2022-11-28T06:37:36.234Z,95231.8
2022-11-28T06:38:38.722Z,95235.1
2022-11-28T06:39:42.278Z,95239
2022-11-28T06:40:45.314Z,95239.4
2022-11-28T06:41:47.511Z,95241.5
2022-11-28T06:42:50.007Z,95241.2
2022-11-28T06:43:52.220Z,95232.1
2022-11-28T06:44:54.426Z,95232.9
2022-11-28T06:45:57.213Z,95230.8
2022-11-28T06:46:59.770Z,95225.6
2022-11-28T06:48:01.964Z,95227.7
2022-11-28T06:49:04.276Z,95229.3
2022-11-28T06:50:06.958Z,95227.2
2022-11-28T06:51:09.035Z,95234.4
2022-11-28T06:52:11.528Z,95240.8
2022-11-28T06:53:14.127Z,95254
2022-11-28T06:54:16.437Z,95260.1
2022-11-28T06:55:18.791Z,95262.7
2022-11-28T06:56:20.995Z,95267.3
2022-11-28T06:57:23.195Z,95251.2
2022-11-28T06:58:25.670Z,95244.1
2022-11-28T06:59:28.151Z,95243.8
2022-11-28T07:00:30.797Z,95240
2022-11-28T07:01:33.607Z,95237.7
2022-11-28T07:02:36.550Z,95236.6
2022-11-28T07:03:39.267Z,95230.1
2022-11-28T07:04:41.865Z,95234.5
2022-11-28T07:05:44.453Z,95231.9
2022-11-28T07:06:47.071Z,95234
2022-11-28T07:08:54.383Z,95234.8
2022-11-28T07:09:56.871Z,95236.5
2022-11-28T07:10:59.473Z,95237.1
2022-11-28T07:12:01.438Z,95238.9
2022-11-28T07:14:08.902Z,95234.2
2022-11-28T07:15:11.403Z,95233.6
2022-11-28T07:16:13.831Z,95234.2
2022-11-28T07:17:16.559Z,95241.6
2022-11-28T07:18:18.492Z,95247.8
2022-11-28T07:19:20.697Z,95248.1
2022-11-28T07:20:23.292Z,95261.6
2022-11-28T07:21:25.923Z,95263.4
2022-11-28T07:22:28.534Z,95264
2022-11-28T07:23:30.750Z,95272.3
2022-11-28T07:24:33.090Z,95268.1
2022-11-28T07:25:35.579Z,95258.9
2022-11-28T07:26:38.109Z,95248.9
2022-11-28T07:27:40.379Z,95253.1
2022-11-28T07:28:42.862Z,95241.7
2022-11-28T07:29:45.996Z,95249.3
2022-11-28T07:30:47.916Z,95256.4
2022-11-28T07:31:50.723Z,95271.5
2022-11-28T07:32:53.039Z,95263.8
2022-11-28T07:33:55.551Z,95257.3
2022-11-28T07:34:58.039Z,95243
2022-11-28T07:36:00.648Z,95246.3
2022-11-28T07:37:02.883Z,95241.3
2022-11-28T07:38:05.470Z,95234.6
2022-11-28T07:39:07.974Z,95230.1
2022-11-28T07:40:10.578Z,95225.1
2022-11-28T07:41:12.583Z,95229.8
2022-11-28T07:42:15.178Z,95233.2
2022-11-28T07:43:18.191Z,95235.9
2022-11-28T07:44:20.712Z,95238.7
2022-11-28T07:46:30.173Z,95233.8
2022-11-28T07:47:32.556Z,95228.8
2022-11-28T07:48:35.059Z,95224.4
2022-11-28T07:49:37.561Z,95224.7
2022-11-28T07:50:39.801Z,95222.3
2022-11-28T07:51:41.764Z,95215
2022-11-28T07:52:43.715Z,95222.8
2022-11-28T07:53:46.226Z,95220.5
2022-11-28T07:54:48.454Z,95221.5
2022-11-28T07:55:50.710Z,95224.1
2022-11-28T07:57:58.211Z,95221.5
2022-11-28T08:00:05.710Z,95225.9
2022-11-28T08:01:07.921Z,95229.2
2022-11-28T08:02:10.528Z,95228.3
2022-11-28T08:03:13.050Z,95224.6
2022-11-28T08:04:15.833Z,95225.8
2022-11-28T08:05:17.950Z,95227.4
2022-11-28T08:06:20.176Z,95228.6
2022-11-28T08:07:22.727Z,95233.3
2022-11-28T08:08:25.400Z,95228.6
2022-11-28T08:09:27.910Z,95229.1
2022-11-28T08:10:30.407Z,95242.9
2022-11-28T08:11:32.925Z,95243.1
2022-11-28T08:12:35.124Z,95239.8
2022-11-28T08:13:37.071Z,95246.2
2022-11-28T08:14:39.564Z,95241.4
2022-11-28T08:15:42.399Z,95239.3
2022-11-28T08:16:44.515Z,95239.2
2022-11-28T08:17:47.482Z,95245.5
2022-11-28T08:18:49.988Z,95239.8
2022-11-28T08:19:52.203Z,95236.8
2022-11-28T08:20:54.399Z,95235
2022-11-28T08:21:56.609Z,95231.4
2022-11-28T08:22:58.834Z,95229.9
2022-11-28T08:24:00.814Z,95232.9
2022-11-28T08:25:03.069Z,95227.3
2022-11-28T08:26:05.549Z,95227.2
2022-11-28T08:27:08.051Z,95222.3
2022-11-28T08:28:09.977Z,95216.7
2022-11-28T08:29:12.497Z,95218.5
2022-11-28T08:30:14.699Z,95218.7
2022-11-28T08:31:17.266Z,95215.4
2022-11-28T08:32:19.709Z,95212
2022-11-28T08:33:22.194Z,95211.7
2022-11-28T08:34:24.696Z,95214.1
2022-11-28T08:35:27.338Z,95226.1
2022-11-28T08:36:31.100Z,95221.8
2022-11-28T08:37:33.584Z,95217.2
2022-11-28T08:38:36.098Z,95230.6
2022-11-28T08:39:38.607Z,95216.5
2022-11-28T08:40:41.124Z,95211
2022-11-28T08:41:43.605Z,95214.4
2022-11-28T08:42:45.832Z,95221.5
2022-11-28T08:43:47.506Z,95221.6
2022-11-28T08:44:50.056Z,95222.3
2022-11-28T08:45:52.200Z,95218.5
2022-11-28T08:46:54.611Z,95217
2022-11-28T08:47:57.098Z,95218.3
2022-11-28T08:48:59.317Z,95218.7
2022-11-28T08:50:01.526Z,95229
2022-11-28T08:51:03.744Z,95224.4
2022-11-28T08:52:06.256Z,95222.3
2022-11-28T08:53:09.278Z,95226.1
2022-11-28T08:54:11.542Z,95223.7
2022-11-28T08:55:14.137Z,95228.3
2022-11-28T08:56:16.421Z,95230.4
2022-11-28T08:57:18.385Z,95234.4
2022-11-28T08:58:20.934Z,95238.1
2022-11-28T08:59:23.199Z,95236.3
2022-11-28T09:00:25.740Z,95233.6
2022-11-28T09:01:28.284Z,95229.5
2022-11-28T09:02:30.974Z,95230.3
2022-11-28T09:03:33.697Z,95231.4
2022-11-28T09:04:35.982Z,95227.4
2022-11-28T09:05:38.467Z,95230.2
2022-11-28T09:06:40.979Z,95230.4
2022-11-28T09:07:43.938Z,95229.8
2022-11-28T09:08:46.509Z,95231.2
2022-11-28T09:09:50.378Z,95231.6
2022-11-28T09:10:52.598Z,95230.7
2022-11-28T09:11:54.840Z,95236.3
2022-11-28T09:12:57.079Z,95234.2
2022-11-28T09:13:59.022Z,95229.7
2022-11-28T09:15:00.686Z,95234.3
2022-11-28T09:16:02.912Z,95229
2022-11-28T09:17:04.928Z,95231.9
2022-11-28T09:18:06.995Z,95238.2
2022-11-28T09:19:09.397Z,95237.2
2022-11-28T09:20:11.905Z,95238.4
2022-11-28T09:21:14.417Z,95238.2
2022-11-28T09:22:16.909Z,95239.3
2022-11-28T09:23:19.175Z,95238.3
2022-11-28T09:24:21.384Z,95240.6
2022-11-28T09:25:23.403Z,95239.2
2022-11-28T09:26:25.906Z,95241.5
2022-11-28T09:27:28.407Z,95242.4
2022-11-28T09:28:30.616Z,95239.7
2022-11-28T09:29:33.131Z,95241
2022-11-28T09:30:35.625Z,95242.8
2022-11-28T09:31:40.903Z,95242.6
2022-11-28T09:32:44.461Z,95244.9
2022-11-28T09:33:46.678Z,95246.2
2022-11-28T09:34:49.149Z,95246.8
2022-11-28T09:35:51.384Z,95246.3
2022-11-28T09:36:53.606Z,95243.9
2022-11-28T09:37:56.092Z,95245.6
2022-11-28T09:38:58.014Z,95247.6
2022-11-28T09:41:05.524Z,95244.1
2022-11-28T09:42:08.069Z,95246.3
2022-11-28T09:43:10.568Z,95244.6
2022-11-28T09:44:13.060Z,95246.9
2022-11-28T09:45:15.259Z,95250.1
2022-11-28T09:46:18.010Z,95242.1
2022-11-28T09:47:20.627Z,95241.1
2022-11-28T09:48:23.113Z,95238.2
2022-11-28T09:49:25.328Z,95241
2022-11-28T09:50:27.341Z,95240.2
2022-11-28T09:51:29.554Z,95240.4
2022-11-28T09:52:32.474Z,95243.2
2022-11-28T09:53:35.046Z,95236.3
2022-11-28T09:54:37.557Z,95237.4
2022-11-28T09:55:39.472Z,95243.4
2022-11-28T09:56:42.004Z,95241.2
2022-11-28T09:57:43.697Z,95244.8
2022-11-28T09:58:46.206Z,95241
2022-11-28T09:59:48.138Z,95243.9
2022-11-28T10:01:54.512Z,95238.7
2022-11-28T10:02:56.806Z,95236.6
2022-11-28T10:03:59.649Z,95238.1
2022-11-28T10:05:02.847Z,95235.6
2022-11-28T10:06:05.195Z,95230.6
2022-11-28T10:07:07.399Z,95229.3
2022-11-28T10:08:09.776Z,95229.1
2022-11-28T10:09:12.159Z,95232.3
2022-11-28T10:10:14.359Z,95229.8
2022-11-28T10:11:16.576Z,95229.9
2022-11-28T10:12:18.824Z,95230.5
2022-11-28T10:13:21.075Z,95228.5
2022-11-28T10:14:23.563Z,95231.6
2022-11-28T10:15:26.068Z,95231.7
2022-11-28T10:16:28.596Z,95233.4
2022-11-28T10:17:30.596Z,95227.6
2022-11-28T10:18:33.098Z,95228.7
2022-11-28T10:20:39.722Z,95232.2
2022-11-28T10:21:41.964Z,95233.2
2022-11-28T10:22:44.446Z,95229.8
2022-11-28T10:23:46.664Z,95231.6
2022-11-28T10:24:49.139Z,95234.2
2022-11-28T10:25:51.350Z,95232.7
2022-11-28T10:26:53.550Z,95235.8
2022-11-28T10:27:55.770Z,95232.1
2022-11-28T10:28:57.882Z,95229.7
2022-11-28T10:30:00.387Z,95232.9
2022-11-28T10:31:02.691Z,95229.3
2022-11-28T10:32:05.306Z,95228.6
2022-11-28T10:33:07.802Z,95231.9
2022-11-28T10:34:09.802Z,95229.9
2022-11-28T10:35:12.296Z,95229.6
2022-11-28T10:36:14.522Z,95229.5
2022-11-28T10:37:17.017Z,95228.6
2022-11-28T10:38:19.506Z,95224.7
2022-11-28T10:39:21.712Z,95223
2022-11-28T10:40:23.924Z,95225.8
2022-11-28T10:41:25.901Z,95221.2
2022-11-28T10:42:28.192Z,95219.3
2022-11-28T10:43:30.859Z,95221.4
2022-11-28T10:44:33.100Z,95216.3
2022-11-28T10:45:35.618Z,95217.6
2022-11-28T10:46:38.184Z,95221.4
2022-11-28T10:47:40.820Z,95217.2
2022-11-28T10:48:43.328Z,95218.7
2022-11-28T10:49:46.585Z,95217.8
2022-11-28T10:50:49.083Z,95217
2022-11-28T10:51:51.606Z,95215
2022-11-28T10:52:53.809Z,95220.1
2022-11-28T10:53:56.034Z,95219.4
2022-11-28T10:54:58.526Z,95218.2
2022-11-28T10:56:01.005Z,95219.1
2022-11-28T10:57:02.973Z,95215.7
2022-11-28T10:58:05.169Z,95216.2
2022-11-28T10:59:07.734Z,95210.3
2022-11-28T11:00:10.237Z,95212.7
2022-11-28T11:01:13.218Z,95205.9
2022-11-28T11:02:15.836Z,95207.6
2022-11-28T11:03:18.357Z,95210.3
2022-11-28T11:04:21.234Z,95209.5
2022-11-28T11:05:23.967Z,95214
2022-11-28T11:07:32.952Z,95213.8
2022-11-28T11:08:35.337Z,95213.1
2022-11-28T11:09:37.866Z,95213.3
2022-11-28T11:10:40.373Z,95216.5
2022-11-28T11:11:42.846Z,95217.6
2022-11-28T11:12:45.033Z,95221.7
2022-11-28T11:13:47.234Z,95223.4
2022-11-28T11:14:49.227Z,95222.5
2022-11-28T11:15:51.718Z,95224.7
2022-11-28T11:16:54.092Z,95224.5
2022-11-28T11:17:56.579Z,95223.4
2022-11-28T11:18:59.103Z,95223.9
2022-11-28T11:20:01.026Z,95221.5
2022-11-28T11:21:03.297Z,95220.9
2022-11-28T11:22:05.506Z,95220.7
2022-11-28T11:23:07.456Z,95218.7
2022-11-28T11:24:09.650Z,95215
2022-11-28T11:25:11.847Z,95213.5
2022-11-28T11:26:14.088Z,95216.3
2022-11-28T11:27:15.747Z,95211.3
2022-11-28T11:28:17.654Z,95212.8
2022-11-28T11:29:20.156Z,95215.2
2022-11-28T11:30:22.479Z,95213.7
2022-11-28T11:31:25.528Z,95210.1
2022-11-28T11:32:28.008Z,95210.1
2022-11-28T11:33:30.258Z,95210.6
2022-11-28T11:34:32.698Z,95213.2
2022-11-28T11:35:34.890Z,95208
2022-11-28T11:36:37.392Z,95208
2022-11-28T11:37:39.623Z,95208.5
2022-11-28T11:38:41.567Z,95206.6
2022-11-28T11:39:44.780Z,95212.7
2022-11-28T11:40:46.931Z,95211.2
2022-11-28T11:41:49.126Z,95208.3
2022-11-28T11:42:51.343Z,95206.6
2022-11-28T11:43:53.832Z,95207.9
2022-11-28T11:44:56.039Z,95205.1
2022-11-28T11:45:58.592Z,95204.3
2022-11-28T11:47:00.663Z,95206
2022-11-28T11:48:02.888Z,95202.3
2022-11-28T11:49:05.360Z,95202.1
2022-11-28T11:50:07.576Z,95203.5
2022-11-28T11:51:10.050Z,95201.4
2022-11-28T11:52:12.306Z,95197.4
2022-11-28T11:53:14.787Z,95200.8
2022-11-28T11:54:17.275Z,95201
2022-11-28T11:55:18.932Z,95197.7
2022-11-28T11:56:21.422Z,95195.3
2022-11-28T11:58:28.342Z,95192.9
2022-11-28T11:59:30.576Z,95193.6
2022-11-28T12:00:32.501Z,95195
2022-11-28T12:01:35.145Z,95194
2022-11-28T12:02:38.560Z,95191.6
2022-11-28T12:03:42.027Z,95186.9
2022-11-28T12:06:54.416Z,95191.4
2022-11-28T12:07:57.045Z,95192.9
2022-11-28T12:08:59.345Z,95191.8
2022-11-28T12:11:06.242Z,95192.1
2022-11-28T12:12:08.450Z,95191
2022-11-28T12:13:10.375Z,95190.1
2022-11-28T12:14:12.596Z,95191.7
2022-11-28T12:15:14.810Z,95185.8
2022-11-28T12:16:17.625Z,95188.8
2022-11-28T12:18:25.428Z,95187.4
2022-11-28T12:19:27.934Z,95184.8
2022-11-28T12:20:30.427Z,95186
2022-11-28T12:21:32.827Z,95181.6
2022-11-28T12:22:35.313Z,95190.5
2022-11-28T12:23:37.538Z,95191.3
2022-11-28T12:24:39.436Z,95188.6
2022-11-28T12:25:41.683Z,95191.8
2022-11-28T12:26:44.164Z,95187.9
2022-11-28T12:27:46.237Z,95184.2
2022-11-28T12:28:48.784Z,95195
2022-11-28T12:29:51.267Z,95196.5
2022-11-28T12:30:54.020Z,95192.8
2022-11-28T12:31:56.288Z,95192.5
2022-11-28T12:32:58.509Z,95189.9
2022-11-28T12:34:00.503Z,95188.9
2022-11-28T12:35:02.447Z,95185.2
2022-11-28T12:36:05.112Z,95187.7
2022-11-28T12:37:07.629Z,95184.7
2022-11-28T12:39:14.323Z,95185.7
2022-11-28T12:40:16.551Z,95184
2022-11-28T12:41:18.209Z,95184.3
2022-11-28T12:42:20.758Z,95184.3
2022-11-28T12:43:23.315Z,95180.8
2022-11-28T12:44:25.245Z,95183.7
2022-11-28T12:45:27.727Z,95186
2022-11-28T12:46:30.587Z,95183.3
2022-11-28T12:47:32.868Z,95186.3
2022-11-28T12:48:35.061Z,95184.7
2022-11-28T12:49:37.083Z,95185.1
2022-11-28T12:50:39.723Z,95185.3
2022-11-28T12:51:42.457Z,95180.8
2022-11-28T12:52:45.012Z,95180.3
2022-11-28T12:53:46.700Z,95182.6
2022-11-28T12:54:49.319Z,95183.8
2022-11-28T12:55:51.411Z,95181.1
2022-11-28T12:56:53.915Z,95183.3
2022-11-28T12:57:56.401Z,95189.2
2022-11-28T12:58:58.892Z,95191.6
2022-11-28T13:01:05.827Z,95187.1
2022-11-28T13:02:23.489Z,95185.8
2022-11-28T13:03:25.941Z,95187